Time;durP1;ratioP1;P1;durP2;ratioP2;P2;SDS_P1;SDS_P2;PMS_P1;PMS_P2;Temp;Humidity;BMP_temperature;BMP_pressure;BME280_temperature;BME280_humidity;BME280_pressure;Samples;Min_cycle;Max_cycle;Signal;HPM_P1;HPM_P2
2023/03/29 00:00:31;;;;;;;4.50;3.80;;;;;;;0.10;92.78;97490.97;4987727;28;20223;-65
2023/03/29 00:03:01;;;;;;;6.53;4.20;;;;;;;0.06;93.68;97482.56;4958504;28;20216;-64
2023/03/29 00:05:32;;;;;;;5.33;3.73;;;;;;;0.04;95.03;97491.41;4965616;28;20286;-65
2023/03/29 00:08:03;;;;;;;5.57;4.30;;;;;;;0.02;96.07;97498.50;4947959;28;20213;-64
2023/03/29 00:10:32;;;;;;;4.27;3.87;;;;;;;0.01;96.83;97499.44;4983058;28;20247;-64
2023/03/29 00:13:00;;;;;;;4.83;4.30;;;;;;;0.00;96.49;97483.00;4946838;28;20216;-65
2023/03/29 00:15:28;;;;;;;4.97;4.10;;;;;;;0.00;96.18;97485.59;4984911;28;20741;-64
2023/03/29 00:17:56;;;;;;;6.03;3.77;;;;;;;-0.01;96.99;97489.13;4946141;28;20204;-63
2023/03/29 00:20:23;;;;;;;4.60;4.20;;;;;;;-0.01;98.49;97489.13;4952867;28;20224;-65
2023/03/29 00:22:51;;;;;;;5.77;4.17;;;;;;;0.05;97.60;97488.72;4972336;28;20209;-64
2023/03/29 00:25:20;;;;;;;4.60;4.20;;;;;;;-0.01;99.58;97483.91;4966146;28;20363;-65
2023/03/29 00:27:48;;;;;;;4.40;4.10;;;;;;;-0.04;100.00;97471.94;4969109;28;20208;-65
2023/03/29 00:30:16;;;;;;;5.13;4.47;;;;;;;-0.06;100.00;97460.81;4966676;28;20232;-65
2023/03/29 00:32:44;;;;;;;8.53;4.43;;;;;;;-0.05;100.00;97472.91;4970060;28;20205;-65
2023/03/29 00:35:12;;;;;;;5.03;4.53;;;;;;;-0.08;100.00;97457.50;4937933;28;20216;-64
2023/03/29 00:37:40;;;;;;;5.83;4.60;;;;;;;-0.09;100.00;97458.44;4990257;28;20208;-65
2023/03/29 00:40:11;;;;;;;4.70;4.40;;;;;;;-0.09;100.00;97460.19;4947962;28;20365;-65
2023/03/29 00:42:44;;;;;;;4.57;4.17;;;;;;;-0.06;100.00;97458.22;4990228;28;20204;-65
2023/03/29 00:45:18;;;;;;;5.70;4.90;;;;;;;-0.04;100.00;97468.50;4948534;28;20573;-65
2023/03/29 00:47:47;;;;;;;5.37;4.87;;;;;;;-0.05;100.00;97472.91;4982185;28;20303;-66
2023/03/29 00:50:21;;;;;;;6.33;5.00;;;;;;;0.01;100.00;97491.63;4957519;28;20236;-65
2023/03/29 00:52:52;;;;;;;5.17;4.57;;;;;;;0.01;100.00;97484.66;4955586;28;20208;-66
2023/03/29 00:55:22;;;;;;;5.83;5.33;;;;;;;0.06;100.00;97485.16;4964258;28;20333;-65
2023/03/29 00:57:52;;;;;;;7.20;4.77;;;;;;;0.09;100.00;97473.66;4981965;28;20696;-65
2023/03/29 01:00:22;;;;;;;5.30;4.50;;;;;;;0.09;100.00;97479.72;4943359;28;20235;-65
2023/03/29 01:02:52;;;;;;;6.57;4.50;;;;;;;0.12;100.00;97483.88;4981439;28;20200;-65
2023/03/29 01:05:24;;;;;;;6.37;4.10;;;;;;;0.07;100.00;97484.22;4947588;28;20247;-65
2023/03/29 01:07:56;;;;;;;5.60;4.47;;;;;;;0.12;100.00;97479.50;4963188;28;20209;-66
2023/03/29 01:10:27;;;;;;;4.30;3.90;;;;;;;0.10;100.00;97476.19;4931721;28;20228;-65
2023/03/29 01:13:02;;;;;;;4.40;4.10;;;;;;;0.11;100.00;97496.06;4981421;28;20205;-65
2023/03/29 01:15:30;;;;;;;4.63;3.57;;;;;;;0.13;100.00;97488.13;4947711;28;20228;-64
2023/03/29 01:18:00;;;;;;;5.80;4.20;;;;;;;0.20;100.00;97484.16;4976449;28;20205;-65
2023/03/29 01:20:42;;;;;;;5.63;3.97;;;;;;;0.27;98.21;97485.38;4964299;28;20228;-65
2023/03/29 01:23:25;;;;;;;4.37;3.70;;;;;;;0.31;97.57;97482.53;4957156;28;21159;-65
2023/03/29 01:25:56;;;;;;;4.83;3.63;;;;;;;0.32;95.92;97474.59;4937762;28;20224;-65
2023/03/29 01:28:29;;;;;;;4.20;3.90;;;;;;;0.39;95.26;97467.16;4977248;28;20204;-65
2023/03/29 01:31:02;;;;;;;4.20;3.80;;;;;;;0.35;95.81;97466.56;4948783;28;20983;-66
2023/03/29 01:33:33;;;;;;;4.23;3.83;;;;;;;0.32;95.09;97452.94;4979677;28;20224;-66
2023/03/29 01:36:05;;;;;;;5.73;4.00;;;;;;;0.31;95.78;97446.06;4954913;28;20937;-65
2023/03/29 01:38:36;;;;;;;4.27;3.87;;;;;;;0.27;96.09;97432.41;4956100;28;20632;-65
2023/03/29 01:41:04;;;;;;;4.13;3.83;;;;;;;0.25;96.51;97418.66;4936391;28;20206;-65
2023/03/29 01:43:36;;;;;;;3.80;3.50;;;;;;;0.18;97.87;97420.88;4980750;28;20978;-65
2023/03/29 01:46:07;;;;;;;5.57;3.77;;;;;;;0.16;99.34;97411.53;4971330;28;20228;-65
2023/03/29 01:48:40;;;;;;;4.43;4.03;;;;;;;0.15;100.00;97402.84;4945510;28;20216;-66
2023/03/29 01:51:12;;;;;;;4.57;4.27;;;;;;;0.17;100.00;97398.38;4958816;28;20259;-65
2023/03/29 01:53:42;;;;;;;5.33;3.90;;;;;;;0.16;100.00;97396.69;4959154;28;20208;-65
2023/03/29 01:56:12;;;;;;;4.97;4.60;;;;;;;0.16;100.00;97386.28;4942147;28;20224;-65
2023/03/29 01:58:43;;;;;;;4.23;3.50;;;;;;;0.18;100.00;97387.00;4982817;28;20534;-64
2023/03/29 02:01:16;;;;;;;4.83;4.00;;;;;;;0.22;100.00;97380.63;4981005;28;20193;-65
2023/03/29 02:03:48;;;;;;;7.20;4.40;;;;;;;0.26;100.00;97384.69;4947560;28;20205;-65
2023/03/29 02:06:19;;;;;;;3.90;3.60;;;;;;;0.34;100.00;97385.88;4958622;28;20228;-65
2023/03/29 02:08:48;;;;;;;3.90;3.60;;;;;;;0.37;98.90;97380.44;4963515;28;20652;-66
2023/03/29 02:11:16;;;;;;;4.27;3.27;;;;;;;0.41;96.39;97379.25;4956380;28;20232;-64
2023/03/29 02:13:45;;;;;;;3.53;3.17;;;;;;;0.47;94.51;97376.19;4960975;28;20220;-65
2023/03/29 02:16:13;;;;;;;3.93;3.63;;;;;;;0.52;93.41;97368.03;4980960;28;20207;-65
2023/03/29 02:18:44;;;;;;;4.43;3.60;;;;;;;0.55;92.45;97358.16;4937343;28;20278;-66
2023/03/29 02:21:20;;;;;;;4.83;3.50;;;;;;;0.59;92.84;97358.78;4981134;28;20201;-65
2023/03/29 02:23:48;;;;;;;4.07;3.63;;;;;;;0.62;93.67;97360.34;4939810;28;20202;-65
2023/03/29 02:26:18;;;;;;;3.70;3.37;;;;;;;0.61;95.27;97350.84;4961597;28;20220;-64
2023/03/29 02:28:47;;;;;;;3.80;3.40;;;;;;;0.64;95.44;97354.03;4959053;28;20232;-65
2023/03/29 02:31:18;;;;;;;3.60;3.40;;;;;;;0.64;96.71;97350.63;4982038;28;20229;-65
2023/03/29 02:33:50;;;;;;;3.57;3.37;;;;;;;0.65;97.69;97354.88;4945777;28;20909;-65
2023/03/29 02:36:21;;;;;;;6.20;3.63;;;;;;;0.63;98.69;97343.75;4979240;28;20209;-64
2023/03/29 02:38:48;;;;;;;4.70;4.10;;;;;;;0.56;100.00;97344.19;4951104;28;20252;-64
2023/03/29 02:41:17;;;;;;;3.67;3.47;;;;;;;0.53;100.00;97349.63;4962891;28;20907;-65
2023/03/29 02:43:47;;;;;;;4.47;4.07;;;;;;;0.47;100.00;97337.06;4940318;28;20213;-65
2023/03/29 02:46:16;;;;;;;5.33;4.90;;;;;;;0.47;100.00;97346.69;4955689;28;20209;-64
2023/03/29 02:48:45;;;;;;;4.33;3.93;;;;;;;0.46;100.00;97342.41;4980645;28;20232;-65
2023/03/29 02:51:17;;;;;;;6.00;4.40;;;;;;;0.43;100.00;97338.25;4948301;28;20220;-65
2023/03/29 02:53:50;;;;;;;6.03;3.97;;;;;;;0.37;100.00;97323.09;4958943;28;20216;-65
2023/03/29 02:56:18;;;;;;;4.40;4.00;;;;;;;0.41;100.00;97327.13;4962721;28;20212;-64
2023/03/29 02:58:47;;;;;;;7.27;4.23;;;;;;;0.39;100.00;97331.63;4943976;28;20228;-65
2023/03/29 03:01:16;;;;;;;3.83;3.63;;;;;;;0.47;100.00;97328.44;4957763;28;20215;-64
2023/03/29 03:03:43;;;;;;;4.00;3.60;;;;;;;0.45;100.00;97336.34;4981076;28;20208;-65
2023/03/29 03:06:12;;;;;;;3.90;3.53;;;;;;;0.49;100.00;97332.56;4946965;28;20270;-65
2023/03/29 03:08:40;;;;;;;4.63;4.23;;;;;;;0.45;100.00;97330.31;4955088;28;20208;-67
2023/03/29 03:11:09;;;;;;;4.70;3.93;;;;;;;0.46;100.00;97324.97;4960287;28;20706;-66
2023/03/29 03:13:36;;;;;;;4.23;3.73;;;;;;;0.50;100.00;97325.59;4962449;28;20215;-65
2023/03/29 03:16:07;;;;;;;4.83;3.97;;;;;;;0.51;100.00;97327.25;4958241;28;20197;-65
2023/03/29 03:18:34;;;;;;;5.13;4.00;;;;;;;0.51;100.00;97329.84;4982488;28;20721;-65
2023/03/29 03:21:03;;;;;;;3.97;3.67;;;;;;;0.51;100.00;97337.69;4977491;28;20387;-64
2023/03/29 03:23:32;;;;;;;4.63;4.23;;;;;;;0.47;100.00;97338.88;4939454;28;20213;-64
2023/03/29 03:26:00;;;;;;;5.70;4.37;;;;;;;0.49;100.00;97344.78;4964669;28;20235;-65
2023/03/29 03:28:27;;;;;;;5.27;4.43;;;;;;;0.46;100.00;97345.03;4938634;28;20212;-67
2023/03/29 03:30:55;;;;;;;4.60;4.20;;;;;;;0.45;100.00;97338.16;4959801;28;21058;-65
2023/03/29 03:33:25;;;;;;;4.40;3.97;;;;;;;0.44;100.00;97332.09;4976420;28;20218;-65
2023/03/29 03:35:55;;;;;;;4.47;4.10;;;;;;;0.44;100.00;97329.47;4933489;28;20217;-65
2023/03/29 03:38:24;;;;;;;4.73;4.33;;;;;;;0.44;100.00;97329.47;4926905;28;20870;-64
2023/03/29 03:40:53;;;;;;;4.20;4.00;;;;;;;0.39;100.00;97319.44;4963494;28;20238;-65
2023/03/29 03:43:21;;;;;;;4.40;3.80;;;;;;;0.33;100.00;97319.88;4920814;28;20255;-66
2023/03/29 03:45:48;;;;;;;4.50;4.10;;;;;;;0.30;100.00;97319.28;4980744;28;20604;-64
2023/03/29 03:48:17;;;;;;;5.00;4.60;;;;;;;0.24;100.00;97315.34;4955221;28;20668;-64
2023/03/29 03:50:48;;;;;;;5.40;4.60;;;;;;;0.21;100.00;97316.44;4985442;28;20310;-65
2023/03/29 03:53:16;;;;;;;5.70;3.87;;;;;;;0.05;100.00;97306.31;4932025;28;20638;-67
2023/03/29 03:55:47;;;;;;;6.50;5.10;;;;;;;0.10;100.00;97325.03;4961044;28;20200;-65
2023/03/29 03:58:15;;;;;;;5.43;4.93;;;;;;;0.07;100.00;97316.63;4953536;28;20208;-64
2023/03/29 04:00:43;;;;;;;4.17;3.87;;;;;;;0.11;100.00;97318.03;4975261;28;20283;-65
2023/03/29 04:03:11;;;;;;;5.30;4.90;;;;;;;0.11;100.00;97324.09;4957876;28;20200;-65
2023/03/29 04:05:39;;;;;;;8.20;4.93;;;;;;;0.07;100.00;97314.00;4981386;28;20995;-64
2023/03/29 04:08:21;;;;;;;5.20;4.77;;;;;;;0.04;100.00;97319.44;4969495;28;20662;-63
2023/03/29 04:10:51;;;;;;;5.13;4.60;;;;;;;0.04;100.00;97320.28;4965822;28;20380;-65
2023/03/29 04:13:19;;;;;;;6.27;4.80;;;;;;;-0.07;100.00;97308.06;4940802;28;20692;-67
2023/03/29 04:15:48;;;;;;;5.60;5.10;;;;;;;-0.05;100.00;97319.19;4976927;28;20629;-66
2023/03/29 04:18:16;;;;;;;5.57;4.97;;;;;;;-0.08;100.00;97313.38;4938860;28;20212;-66
2023/03/29 04:20:44;;;;;;;5.73;5.23;;;;;;;-0.07;100.00;97309.81;4979605;28;20644;-66
2023/03/29 04:23:13;;;;;;;5.50;5.00;;;;;;;-0.11;100.00;97311.84;4975667;28;20761;-66
2023/03/29 04:25:41;;;;;;;6.87;6.27;;;;;;;-0.11;100.00;97300.56;4937851;28;20710;-64
2023/03/29 04:28:09;;;;;;;7.80;5.33;;;;;;;-0.05;100.00;97305.31;4947216;28;20212;-66
2023/03/29 04:30:37;;;;;;;6.20;5.70;;;;;;;-0.02;100.00;97316.38;4957319;28;20596;-65
2023/03/29 04:33:05;;;;;;;9.20;5.90;;;;;;;0.00;100.00;97308.44;4950230;28;20907;-65
2023/03/29 04:35:33;;;;;;;5.87;5.40;;;;;;;-0.03;100.00;97317.31;4972305;28;20425;-66
2023/03/29 04:38:00;;;;;;;5.13;4.77;;;;;;;-0.01;100.00;97323.22;4959591;28;21027;-66
2023/03/29 04:40:29;;;;;;;6.17;5.43;;;;;;;0.02;100.00;97316.13;4937117;28;21365;-66
2023/03/29 04:42:58;;;;;;;6.03;5.43;;;;;;;0.03;100.00;97318.63;4959241;28;20236;-64
2023/03/29 04:45:26;;;;;;;6.23;5.40;;;;;;;0.04;100.00;97317.69;4944116;28;21013;-64
2023/03/29 04:47:58;;;;;;;5.77;5.27;;;;;;;0.01;100.00;97312.72;4968779;28;20222;-64
2023/03/29 04:50:26;;;;;;;8.53;6.10;;;;;;;0.00;100.00;97311.06;4953653;28;20330;-63
2023/03/29 04:52:53;;;;;;;6.27;5.67;;;;;;;0.01;100.00;97312.72;4978296;28;20531;-64
2023/03/29 04:55:21;;;;;;;6.73;6.23;;;;;;;0.02;100.00;97308.31;4929776;28;20853;-64
2023/03/29 04:57:50;;;;;;;6.70;6.10;;;;;;;0.02;100.00;97316.13;4965490;28;20203;-63
2023/03/29 05:00:19;;;;;;;6.37;5.87;;;;;;;0.01;100.00;97314.47;4953398;28;20240;-64
2023/03/29 05:02:47;;;;;;;6.07;5.57;;;;;;;0.00;100.00;97313.66;4954011;28;20285;-64
2023/03/29 05:05:14;;;;;;;6.33;5.80;;;;;;;0.03;100.00;97307.38;4952254;28;20205;-64
2023/03/29 05:07:43;;;;;;;6.70;6.20;;;;;;;0.03;100.00;97303.00;4980628;28;20212;-63
2023/03/29 05:10:11;;;;;;;6.30;5.70;;;;;;;0.03;100.00;97289.13;4971398;28;20220;-64
2023/03/29 05:12:38;;;;;;;6.57;5.97;;;;;;;0.04;100.00;97294.25;4941099;28;20488;-65
2023/03/29 05:15:09;;;;;;;6.67;6.07;;;;;;;0.06;100.00;97299.31;4940653;28;20208;-64
2023/03/29 05:17:36;;;;;;;6.50;5.93;;;;;;;0.08;100.00;97294.81;4955332;28;20223;-62
2023/03/29 05:20:08;;;;;;;7.13;6.53;;;;;;;0.10;100.00;97287.72;4976740;28;20229;-65
2023/03/29 05:22:37;;;;;;;7.00;6.40;;;;;;;0.15;100.00;97290.81;4974292;28;20209;-66
2023/03/29 05:25:05;;;;;;;6.60;5.97;;;;;;;0.21;100.00;97292.97;4976873;28;20214;-64
2023/03/29 05:27:33;;;;;;;7.03;6.43;;;;;;;0.27;100.00;97286.44;4935178;28;21394;-63
2023/03/29 05:30:01;;;;;;;6.23;5.63;;;;;;;0.32;100.00;97291.31;4955931;28;20244;-64
2023/03/29 05:32:30;;;;;;;6.90;6.30;;;;;;;0.42;100.00;97289.66;4942848;28;20418;-64
2023/03/29 05:34:58;;;;;;;6.17;5.67;;;;;;;0.48;100.00;97291.00;4987690;28;20812;-64
2023/03/29 05:37:25;;;;;;;7.47;6.77;;;;;;;0.51;100.00;97290.75;4957768;28;20331;-64
2023/03/29 05:39:53;;;;;;;7.00;6.37;;;;;;;0.55;100.00;97287.75;4980661;28;20908;-63
2023/03/29 05:42:37;;;;;;;7.47;6.83;;;;;;;0.52;100.00;97271.53;4967035;28;20675;-65
2023/03/29 05:45:06;;;;;;;6.40;5.47;;;;;;;0.53;100.00;97268.81;4950598;28;20417;-64
2023/03/29 05:47:35;;;;;;;9.33;8.43;;;;;;;0.51;100.00;97273.31;4940526;28;20750;-64
2023/03/29 05:50:03;;;;;;;9.87;8.97;;;;;;;0.50;100.00;97273.44;4985519;28;20899;-64
2023/03/29 05:52:31;;;;;;;8.27;7.57;;;;;;;0.51;100.00;97275.91;4957801;28;20624;-65
2023/03/29 05:54:58;;;;;;;7.37;6.77;;;;;;;0.65;100.00;97266.22;4985332;28;20646;-65
2023/03/29 05:57:26;;;;;;;7.33;6.73;;;;;;;0.76;100.00;97266.19;4983406;28;20463;-64
2023/03/29 05:59:55;;;;;;;7.80;7.20;;;;;;;0.83;100.00;97262.16;4937476;28;20744;-64
2023/03/29 06:02:23;;;;;;;7.73;7.03;;;;;;;0.84;100.00;97255.97;4934888;28;20791;-65
2023/03/29 06:04:52;;;;;;;7.67;7.07;;;;;;;0.85;100.00;97267.25;4981070;28;20273;-64
2023/03/29 06:07:22;;;;;;;7.27;6.57;;;;;;;0.87;100.00;97267.97;4959940;28;20311;-64
2023/03/29 06:09:49;;;;;;;8.17;7.47;;;;;;;0.88;100.00;97261.81;4973086;28;20240;-64
2023/03/29 06:12:18;;;;;;;8.40;7.60;;;;;;;1.01;100.00;97265.09;4980919;28;20855;-64
2023/03/29 06:14:47;;;;;;;7.90;7.20;;;;;;;1.04;100.00;97260.56;4936157;28;20874;-66
2023/03/29 06:17:14;;;;;;;8.17;7.47;;;;;;;1.06;100.00;97262.13;4965060;28;20492;-65
2023/03/29 06:19:43;;;;;;;8.40;7.80;;;;;;;1.14;100.00;97253.69;4961855;28;20544;-64
2023/03/29 06:22:12;;;;;;;9.10;8.33;;;;;;;1.22;100.00;97263.50;4983654;28;20196;-63
2023/03/29 06:24:41;;;;;;;7.43;6.93;;;;;;;1.31;100.00;97265.38;4958055;28;20220;-64
2023/03/29 06:27:08;;;;;;;7.63;6.90;;;;;;;1.51;100.00;97253.31;4985503;28;20204;-63
2023/03/29 06:29:36;;;;;;;8.77;8.07;;;;;;;1.59;100.00;97239.63;4961000;28;20228;-64
2023/03/29 06:32:05;;;;;;;9.60;8.33;;;;;;;1.68;100.00;97249.31;4946706;28;20559;-63
2023/03/29 06:34:33;;;;;;;8.37;7.57;;;;;;;1.70;100.00;97247.41;4966326;28;20633;-63
2023/03/29 06:37:04;;;;;;;7.80;7.00;;;;;;;1.69;100.00;97240.53;4981570;28;20540;-63
2023/03/29 06:39:33;;;;;;;8.50;7.83;;;;;;;1.78;100.00;97243.34;4958532;28;20236;-64
2023/03/29 06:42:01;;;;;;;8.97;8.17;;;;;;;1.94;100.00;97254.19;4983262;28;21720;-64
2023/03/29 06:44:48;;;;;;;8.87;8.00;;;;;;;2.01;100.00;97249.28;4978785;28;20212;-64
2023/03/29 06:47:16;;;;;;;7.67;7.07;;;;;;;2.08;100.00;97257.41;4939831;28;20223;-63
2023/03/29 06:49:44;;;;;;;8.40;7.80;;;;;;;2.13;100.00;97263.09;4942796;28;20224;-64
2023/03/29 06:52:11;;;;;;;8.27;7.43;;;;;;;2.24;100.00;97259.56;4980083;28;20235;-64
2023/03/29 06:54:40;;;;;;;8.03;7.33;;;;;;;2.34;100.00;97257.84;4968006;28;20462;-64
2023/03/29 06:57:09;;;;;;;8.40;7.67;;;;;;;2.37;100.00;97256.75;4979191;28;20503;-62
2023/03/29 06:59:36;;;;;;;7.63;6.73;;;;;;;2.35;100.00;97251.66;4977069;28;20235;-64
2023/03/29 07:02:04;;;;;;;7.33;6.73;;;;;;;2.42;100.00;97244.94;4941257;28;20241;-64
2023/03/29 07:04:33;;;;;;;7.47;6.90;;;;;;;2.45;100.00;97252.53;4953153;28;20669;-64
2023/03/29 07:07:02;;;;;;;7.73;7.13;;;;;;;2.54;100.00;97250.06;4971572;28;20212;-64
2023/03/29 07:09:30;;;;;;;7.77;7.10;;;;;;;2.62;100.00;97252.84;4977774;28;20437;-65
2023/03/29 07:12:00;;;;;;;9.57;8.43;;;;;;;2.55;100.00;97247.34;4962067;28;20331;-65
2023/03/29 07:14:28;;;;;;;7.67;6.87;;;;;;;2.52;100.00;97246.75;4980449;28;20220;-64
2023/03/29 07:16:57;;;;;;;7.33;6.73;;;;;;;2.56;100.00;97256.84;4933422;28;20867;-64
2023/03/29 07:19:26;;;;;;;6.73;6.23;;;;;;;2.39;100.00;97262.66;4980406;28;20224;-64
2023/03/29 07:21:54;;;;;;;7.17;6.60;;;;;;;2.39;100.00;97265.28;4937524;28;20223;-64
2023/03/29 07:24:22;;;;;;;7.57;7.07;;;;;;;2.56;100.00;97262.06;4971767;28;20244;-64
2023/03/29 07:26:50;;;;;;;6.40;5.97;;;;;;;2.59;100.00;97261.81;4954099;28;20210;-63
2023/03/29 07:29:32;;;;;;;7.03;6.43;;;;;;;2.69;100.00;97263.63;4978904;28;20275;-64
2023/03/29 07:32:00;;;;;;;8.37;7.73;;;;;;;2.71;100.00;97266.94;4920726;28;21373;-63
2023/03/29 07:34:28;;;;;;;7.33;6.70;;;;;;;2.80;100.00;97263.53;4971390;28;20228;-64
2023/03/29 07:36:56;;;;;;;10.83;7.43;;;;;;;2.88;100.00;97266.31;4931193;28;20632;-62
2023/03/29 07:39:25;;;;;;;7.87;7.17;;;;;;;2.86;100.00;97273.47;4984907;28;20233;-63
2023/03/29 07:41:52;;;;;;;7.33;6.63;;;;;;;2.84;100.00;97271.94;4959576;28;20641;-63
2023/03/29 07:44:20;;;;;;;7.03;6.53;;;;;;;2.88;100.00;97266.31;4985700;28;20719;-65
2023/03/29 07:46:49;;;;;;;8.03;7.30;;;;;;;2.86;100.00;97276.09;4980958;28;20457;-62
2023/03/29 07:49:16;;;;;;;7.20;6.60;;;;;;;2.93;100.00;97268.53;4943976;28;20235;-64
2023/03/29 07:51:48;;;;;;;6.63;5.87;;;;;;;2.91;100.00;97275.69;4955466;28;20475;-63
2023/03/29 07:54:15;;;;;;;7.43;6.83;;;;;;;2.92;100.00;97276.53;4963110;28;20343;-62
2023/03/29 07:56:43;;;;;;;6.70;6.20;;;;;;;3.07;100.00;97266.50;4963001;28;20244;-64
2023/03/29 07:59:11;;;;;;;7.30;6.60;;;;;;;3.06;100.00;97270.91;4980971;28;20224;-63
2023/03/29 08:01:39;;;;;;;6.47;5.93;;;;;;;3.17;100.00;97273.41;4976007;28;20380;-64
2023/03/29 08:04:08;;;;;;;6.10;5.70;;;;;;;3.19;100.00;97265.44;4939656;28;20209;-65
2023/03/29 08:06:37;;;;;;;6.77;6.13;;;;;;;3.14;100.00;97265.81;4965780;28;20745;-62
2023/03/29 08:09:05;;;;;;;6.63;6.07;;;;;;;3.29;100.00;97254.97;4947997;28;20468;-64
2023/03/29 08:11:33;;;;;;;6.77;6.17;;;;;;;3.45;100.00;97265.72;4975149;28;20214;-65
2023/03/29 08:14:00;;;;;;;5.37;5.07;;;;;;;3.47;100.00;97261.19;4957384;28;20379;-63
2023/03/29 08:16:28;;;;;;;6.27;5.67;;;;;;;3.56;100.00;97263.94;4978988;28;20391;-64
2023/03/29 08:18:55;;;;;;;6.53;5.87;;;;;;;3.58;100.00;97254.13;4973761;28;20345;-64
2023/03/29 08:21:24;;;;;;;6.33;5.43;;;;;;;3.71;100.00;97252.09;4931368;28;20272;-64
2023/03/29 08:23:52;;;;;;;5.90;5.57;;;;;;;3.51;100.00;97260.91;4957577;28;20541;-65
2023/03/29 08:26:19;;;;;;;7.23;6.63;;;;;;;3.55;100.00;97255.25;4982961;28;20212;-64
2023/03/29 08:28:47;;;;;;;5.90;5.30;;;;;;;3.70;100.00;97257.44;4950738;28;20521;-64
2023/03/29 08:31:15;;;;;;;5.17;4.83;;;;;;;3.74;100.00;97261.44;4980350;28;20676;-63
2023/03/29 08:33:43;;;;;;;9.13;5.90;;;;;;;3.65;100.00;97257.88;4971539;28;20228;-64
2023/03/29 08:36:11;;;;;;;5.13;4.80;;;;;;;3.61;100.00;97254.69;4934486;28;20223;-63
2023/03/29 08:38:40;;;;;;;5.70;5.20;;;;;;;3.83;100.00;97265.88;4963352;28;20953;-64
2023/03/29 08:41:32;;;;;;;6.17;5.67;;;;;;;3.78;100.00;97267.25;4979056;28;20204;-63
2023/03/29 08:44:09;;;;;;;5.90;5.50;;;;;;;3.72;100.00;97255.53;4981282;28;20430;-63
2023/03/29 08:46:41;;;;;;;6.93;6.23;;;;;;;3.81;100.00;97249.47;4943614;28;20300;-64
2023/03/29 08:49:09;;;;;;;5.77;5.27;;;;;;;3.80;100.00;97241.72;4980541;28;20663;-64
2023/03/29 08:51:40;;;;;;;5.93;5.53;;;;;;;4.00;100.00;97253.00;4932458;28;20210;-64
2023/03/29 08:54:12;;;;;;;5.50;5.20;;;;;;;3.93;100.00;97242.25;4965118;28;20239;-64
2023/03/29 08:56:42;;;;;;;5.77;5.37;;;;;;;3.96;100.00;97249.84;4960431;28;20220;-64
2023/03/29 08:59:17;;;;;;;6.37;5.60;;;;;;;4.26;100.00;97247.16;4973104;28;20232;-63
2023/03/29 09:01:46;;;;;;;5.20;4.90;;;;;;;4.38;100.00;97245.22;4954612;28;20514;-64
2023/03/29 09:04:19;;;;;;;6.33;5.50;;;;;;;4.41;100.00;97243.09;4981931;28;20192;-63
2023/03/29 09:06:46;;;;;;;6.17;5.67;;;;;;;4.53;100.00;97243.75;4925941;28;20213;-63
2023/03/29 09:09:18;;;;;;;5.70;5.30;;;;;;;4.70;100.00;97242.16;4981454;28;20217;-62
2023/03/29 09:11:56;;;;;;;5.50;5.20;;;;;;;4.90;100.00;97245.53;4962569;28;20220;-62
2023/03/29 09:14:37;;;;;;;5.10;4.70;;;;;;;5.08;100.00;97252.59;4976656;28;20240;-64
2023/03/29 09:17:11;;;;;;;6.23;5.50;;;;;;;5.26;100.00;97257.88;4966276;28;20714;-63
2023/03/29 09:19:42;;;;;;;6.50;5.10;;;;;;;5.50;100.00;97259.09;4978727;28;20540;-64
2023/03/29 09:22:15;;;;;;;5.00;4.70;;;;;;;5.41;97.88;97252.94;4935540;28;20799;-63
2023/03/29 09:24:51;;;;;;;5.23;4.93;;;;;;;5.44;96.92;97257.09;4983736;28;20281;-63
2023/03/29 09:27:23;;;;;;;5.57;4.90;;;;;;;5.48;97.77;97251.34;4963189;28;20234;-64
2023/03/29 09:29:58;;;;;;;5.70;5.27;;;;;;;5.64;96.79;97239.34;4976359;28;20893;-63
2023/03/29 09:32:31;;;;;;;5.60;5.27;;;;;;;5.88;98.42;97240.53;4963743;28;20574;-62
2023/03/29 09:35:05;;;;;;;6.13;5.73;;;;;;;5.98;96.28;97237.81;4982291;28;20466;-64
2023/03/29 09:37:34;;;;;;;5.57;5.10;;;;;;;6.07;94.36;97231.69;4934797;28;20216;-64
2023/03/29 09:40:10;;;;;;;6.40;5.67;;;;;;;6.20;94.37;97225.97;4982634;28;20621;-63
2023/03/29 09:42:39;;;;;;;6.03;5.53;;;;;;;6.11;94.25;97221.66;4957312;28;20909;-64
2023/03/29 09:45:08;;;;;;;5.63;5.13;;;;;;;5.79;95.64;97227.31;4987918;28;20196;-64
2023/03/29 09:47:39;;;;;;;6.23;5.73;;;;;;;5.80;97.56;97225.53;4960429;28;20212;-64
2023/03/29 09:50:12;;;;;;;5.27;4.93;;;;;;;5.70;96.61;97224.78;4981838;28;20229;-64
2023/03/29 09:52:56;;;;;;;6.23;5.77;;;;;;;5.77;100.00;97224.00;4935881;28;20746;-65
2023/03/29 09:55:28;;;;;;;6.47;6.07;;;;;;;5.91;99.09;97224.47;4979533;28;20727;-65
2023/03/29 09:57:58;;;;;;;6.80;6.30;;;;;;;6.15;97.39;97213.31;4962396;28;20314;-66
2023/03/29 10:00:26;;;;;;;5.60;5.20;;;;;;;6.19;97.02;97203.28;4984124;28;20236;-65
2023/03/29 10:02:55;;;;;;;6.47;6.00;;;;;;;6.39;96.29;97211.78;4960207;28;20240;-65
2023/03/29 10:05:24;;;;;;;5.90;5.50;;;;;;;5.92;96.24;97212.97;4987252;28;20459;-64
2023/03/29 10:07:54;;;;;;;6.03;5.63;;;;;;;5.72;98.92;97207.88;4929945;28;20221;-65
2023/03/29 10:10:23;;;;;;;6.33;5.77;;;;;;;5.98;99.51;97216.75;4975984;28;20233;-66
2023/03/29 10:12:56;;;;;;;6.30;5.97;;;;;;;6.32;97.28;97201.06;4976999;28;20216;-65
2023/03/29 10:15:27;;;;;;;6.40;6.00;;;;;;;6.67;96.56;97201.06;4950219;28;20241;-66
2023/03/29 10:17:59;;;;;;;5.87;5.47;;;;;;;6.63;93.93;97191.81;4954161;28;20205;-65
2023/03/29 10:20:27;;;;;;;6.07;5.67;;;;;;;6.28;95.24;97207.63;4971018;28;20827;-65
2023/03/29 10:22:56;;;;;;;6.13;5.63;;;;;;;6.36;96.78;97204.19;4919017;28;21336;-66
2023/03/29 10:25:26;;;;;;;6.50;6.00;;;;;;;6.66;97.04;97204.66;4983192;28;20211;-65
2023/03/29 10:27:57;;;;;;;6.80;6.30;;;;;;;6.69;96.28;97193.00;4974954;28;20820;-62
2023/03/29 10:30:26;;;;;;;6.80;6.20;;;;;;;6.61;95.00;97191.97;4964824;28;20228;-64
2023/03/29 10:32:58;;;;;;;6.70;6.20;;;;;;;6.68;95.87;97189.53;4960385;28;20271;-64
2023/03/29 10:35:29;;;;;;;6.20;5.80;;;;;;;6.97;96.83;97196.22;4984897;28;20239;-64
2023/03/29 10:37:58;;;;;;;6.23;5.83;;;;;;;7.24;96.92;97199.56;4974293;28;20450;-64
2023/03/29 10:40:28;;;;;;;6.17;5.70;;;;;;;7.03;93.21;97192.13;4939418;28;20232;-65
2023/03/29 10:43:00;;;;;;;6.43;5.93;;;;;;;7.14;93.69;97191.81;4977654;28;20711;-63
2023/03/29 10:45:30;;;;;;;6.10;5.70;;;;;;;7.19;92.95;97188.66;4963639;28;20713;-65
2023/03/29 10:47:58;;;;;;;5.77;5.47;;;;;;;7.28;93.04;97192.16;4959833;28;20303;-65
2023/03/29 10:50:33;;;;;;;6.57;6.17;;;;;;;7.51;92.56;97184.41;4981363;28;20231;-63
2023/03/29 10:53:01;;;;;;;6.30;5.70;;;;;;;7.33;91.30;97177.50;4976273;28;20728;-64
2023/03/29 10:55:34;;;;;;;5.87;5.57;;;;;;;7.34;93.15;97192.34;4936517;28;20232;-65
2023/03/29 10:58:16;;;;;;;6.40;5.90;;;;;;;7.70;91.11;97191.19;4980644;28;20224;-64
2023/03/29 11:00:48;;;;;;;6.23;5.80;;;;;;;8.32;90.61;97188.94;4958455;28;20224;-65
2023/03/29 11:03:42;;;;;;;6.17;5.77;;;;;;;8.87;85.49;97181.97;4976741;28;21371;-64
2023/03/29 11:06:15;;;;;;;6.00;5.60;;;;;;;8.91;83.96;97179.81;4984543;28;20294;-65
2023/03/29 11:08:51;;;;;;;6.20;5.63;;;;;;;8.54;84.84;97179.50;4936985;28;20770;-64
2023/03/29 11:11:42;;;;;;;7.00;6.50;;;;;;;8.64;85.43;97166.91;4980439;28;20830;-64
2023/03/29 11:14:20;;;;;;;6.00;5.50;;;;;;;8.66;84.94;97167.56;4982127;28;21025;-65
2023/03/29 11:16:54;;;;;;;7.20;5.93;;;;;;;8.22;84.14;97160.13;4952375;28;21841;-64
2023/03/29 11:19:51;;;;;;;6.00;5.50;;;;;;;7.96;87.40;97164.63;4988301;28;20228;-65
2023/03/29 11:22:23;;;;;;;5.80;5.40;;;;;;;7.98;87.78;97156.53;4976066;28;20211;-64
2023/03/29 11:25:04;;;;;;;6.03;5.53;;;;;;;8.16;88.90;97163.44;4930003;28;20205;-64
2023/03/29 11:27:35;;;;;;;6.33;5.83;;;;;;;8.24;86.95;97156.28;4977192;28;20206;-65
2023/03/29 11:30:07;;;;;;;6.57;5.97;;;;;;;8.65;85.57;97157.16;4981787;28;20232;-65
2023/03/29 11:32:44;;;;;;;6.23;5.83;;;;;;;8.54;85.15;97163.66;4958975;28;20468;-65
2023/03/29 11:35:24;;;;;;;6.60;6.03;;;;;;;8.61;84.62;97159.34;4966548;28;20238;-65
2023/03/29 11:37:57;;;;;;;5.53;5.10;;;;;;;8.58;83.68;97158.84;4952086;28;20208;-64
2023/03/29 11:40:35;;;;;;;6.13;5.53;;;;;;;8.50;83.69;97160.53;4936067;28;20623;-65
2023/03/29 11:43:05;;;;;;;5.60;5.20;;;;;;;8.51;84.78;97163.97;4967254;28;20307;-64
2023/03/29 11:45:38;;;;;;;6.27;5.67;;;;;;;8.84;83.65;97161.19;4974529;28;20197;-64
2023/03/29 11:48:10;;;;;;;6.03;5.43;;;;;;;9.11;83.71;97151.97;4958424;28;20224;-64
2023/03/29 11:50:43;;;;;;;5.73;5.33;;;;;;;9.17;82.71;97153.06;4968286;28;20794;-66